Time,TemperatureF,DewpointF,PressureIn,WindDirection,WindDirectionDegrees,WindSpeedMPH,WindSpeedGustMPH,Humidity,HourlyPrecipIn,Conditions,Clouds,dailyrainin,SoftwareType,DateUTC
2015-01-30 00:00:00,52.7,49.8,30.05,East,82,0.9,1.0,90,0.00,,,0.00,meteobridge,2015-01-30 08:00:00,
2015-01-30 00:05:00,52.5,49.6,30.05,East,85,0.9,1.0,90,0.00,,,0.00,meteobridge,2015-01-30 08:05:00,
2015-01-30 00:10:00,52.2,49.1,30.05,East,88,0.9,1.0,89,0.00,,,0.00,meteobridge,2015-01-30 08:10:00,
2015-01-30 00:15:00,52.2,49.3,30.05,East,100,0.9,1.0,90,0.00,,,0.00,meteobridge,2015-01-30 08:15:00,
2015-01-30 00:21:00,52.2,49.3,30.05,ESE,110,0.0,0.0,90,0.00,,,0.00,meteobridge,2015-01-30 08:21:00,
2015-01-30 00:26:00,52.2,49.6,30.05,ESE,114,0.0,1.0,91,0.00,,,0.00,meteobridge,2015-01-30 08:26:00,
2015-01-30 00:31:00,52.3,49.8,30.05,ESE,105,0.0,0.0,91,0.00,,,0.00,meteobridge,2015-01-30 08:31:00,
2015-01-30 00:36:00,52.2,49.6,30.05,East,96,0.9,1.0,91,0.00,,,0.00,meteobridge,2015-01-30 08:36:00,
2015-01-30 00:41:00,52.2,49.6,30.05,East,85,0.9,2.0,91,0.00,,,0.00,meteobridge,2015-01-30 08:41:00,
2015-01-30 00:46:00,52.2,49.6,30.05,East,95,0.9,1.0,91,0.00,,,0.00,meteobridge,2015-01-30 08:46:00,
2015-01-30 00:51:00,52.0,49.5,30.04,ESE,105,0.9,2.0,91,0.00,,,0.00,meteobridge,2015-01-30 08:51:00,
2015-01-30 00:56:00,52.2,49.6,30.04,East,97,2.0,2.0,91,0.00,,,0.00,meteobridge,2015-01-30 08:56:00,
2015-01-30 01:01:00,52.3,49.8,30.04,ESE,110,2.0,2.0,91,0.00,,,0.00,meteobridge,2015-01-30 09:01:00,
2015-01-30 01:06:00,52.5,50.2,30.04,ESE,121,2.0,3.0,92,0.00,,,0.00,meteobridge,2015-01-30 09:06:00,
2015-01-30 01:11:00,52.5,50.0,30.03,SE,124,2.0,3.0,91,0.00,,,0.00,meteobridge,2015-01-30 09:11:00,
2015-01-30 01:16:00,52.5,50.0,30.03,ESE,115,2.0,3.0,91,0.00,,,0.00,meteobridge,2015-01-30 09:16:00,
2015-01-30 01:21:00,52.5,50.0,30.03,SE,124,0.9,2.0,91,0.00,,,0.00,meteobridge,2015-01-30 09:21:00,
2015-01-30 01:26:00,52.5,50.0,30.03,ESE,123,0.9,1.0,91,0.00,,,0.00,meteobridge,2015-01-30 09:26:00,
2015-01-30 01:31:00,52.7,50.2,30.03,SE,135,0.0,1.0,91,0.00,,,0.00,meteobridge,2015-01-30 09:31:00,
2015-01-30 01:36:00,52.7,50.2,30.03,SE,139,0.9,1.0,91,0.00,,,0.00,meteobridge,2015-01-30 09:36:00,
2015-01-30 01:41:00,52.5,50.0,30.03,SE,132,0.9,1.0,91,0.00,,,0.00,meteobridge,2015-01-30 09:41:00,
2015-01-30 01:46:00,52.5,50.2,30.03,SE,125,0.0,0.0,92,0.00,,,0.00,meteobridge,2015-01-30 09:46:00,
2015-01-30 01:51:00,52.3,49.8,30.03,SE,125,0.0,0.0,91,0.00,,,0.00,meteobridge,2015-01-30 09:51:00,
2015-01-30 01:57:00,52.3,50.0,30.03,SE,125,0.0,0.0,92,0.00,,,0.00,meteobridge,2015-01-30 09:57:00,
2015-01-30 02:02:00,52.2,49.8,30.03,SE,125,0.0,0.0,92,0.00,,,0.00,meteobridge,2015-01-30 10:02:00,
2015-01-30 02:07:00,52.2,49.8,30.03,SE,125,0.0,0.0,92,0.00,,,0.00,meteobridge,2015-01-30 10:07:00,
2015-01-30 02:12:00,52.2,49.8,30.03,SE,125,0.0,0.0,92,0.00,,,0.00,meteobridge,2015-01-30 10:12:00,
2015-01-30 02:17:00,52.0,49.6,30.03,SE,125,0.0,1.0,92,0.00,,,0.00,meteobridge,2015-01-30 10:17:00,
2015-01-30 02:22:00,51.6,49.5,30.03,SE,125,0.0,0.0,92,0.00,,,0.00,meteobridge,2015-01-30 10:22:00,
2015-01-30 02:27:00,51.6,49.5,30.03,East,98,0.0,1.0,92,0.00,,,0.00,meteobridge,2015-01-30 10:27:00,
2015-01-30 02:32:00,51.4,49.3,30.03,East,98,0.0,0.0,92,0.00,,,0.00,meteobridge,2015-01-30 10:32:00,
2015-01-30 02:37:00,51.4,49.3,30.03,East,98,0.0,0.0,92,0.00,,,0.00,meteobridge,2015-01-30 10:37:00,
2015-01-30 02:42:00,51.4,49.3,30.03,East,98,0.0,1.0,92,0.00,,,0.00,meteobridge,2015-01-30 10:42:00,
2015-01-30 02:47:00,51.4,49.5,30.03,East,100,0.0,0.0,93,0.00,,,0.00,meteobridge,2015-01-30 10:47:00,
2015-01-30 02:52:00,51.3,49.3,30.03,ESE,110,0.0,0.0,93,0.00,,,0.00,meteobridge,2015-01-30 10:52:00,
2015-01-30 02:57:00,51.3,49.3,30.03,ESE,110,0.0,0.0,93,0.00,,,0.00,meteobridge,2015-01-30 10:57:00,
2015-01-30 03:02:00,51.3,49.3,30.03,ESE,110,0.0,0.0,93,0.00,,,0.00,meteobridge,2015-01-30 11:02:00,
2015-01-30 03:07:00,51.4,49.5,30.03,ESE,110,0.0,0.0,93,0.00,,,0.00,meteobridge,2015-01-30 11:07:00,
2015-01-30 03:12:00,51.3,49.3,30.03,ESE,110,0.0,0.0,93,0.00,,,0.00,meteobridge,2015-01-30 11:12:00,
2015-01-30 03:18:00,51.3,49.3,30.03,ESE,110,0.0,0.0,93,0.00,,,0.00,meteobridge,2015-01-30 11:18:00,
2015-01-30 03:23:00,51.1,49.1,30.03,ESE,110,0.0,0.0,93,0.00,,,0.00,meteobridge,2015-01-30 11:23:00,
2015-01-30 03:28:00,50.9,48.9,30.03,ESE,110,0.0,0.0,93,0.00,,,0.00,meteobridge,2015-01-30 11:28:00,
2015-01-30 03:33:00,50.7,48.7,30.03,ESE,110,0.0,0.0,93,0.00,,,0.00,meteobridge,2015-01-30 11:33:00,
2015-01-30 03:38:00,50.4,48.4,30.03,ESE,110,0.0,0.0,93,0.00,,,0.00,meteobridge,2015-01-30 11:38:00,
2015-01-30 03:43:00,50.4,48.7,30.03,ESE,110,0.0,0.0,94,0.00,,,0.00,meteobridge,2015-01-30 11:43:00,
2015-01-30 03:48:00,50.4,48.7,30.03,ESE,110,0.0,0.0,94,0.00,,,0.00,meteobridge,2015-01-30 11:48:00,
2015-01-30 03:53:00,50.2,48.6,30.03,ESE,110,0.0,0.0,94,0.00,,,0.00,meteobridge,2015-01-30 11:53:00,
2015-01-30 03:58:00,50.2,48.6,30.03,ESE,110,0.0,0.0,94,0.00,,,0.00,meteobridge,2015-01-30 11:58:00,
2015-01-30 04:03:00,50.2,48.6,30.03,ESE,110,0.0,0.0,94,0.00,,,0.00,meteobridge,2015-01-30 12:03:00,
2015-01-30 04:08:00,49.8,48.2,30.03,East,96,0.0,0.0,94,0.00,,,0.00,meteobridge,2015-01-30 12:08:00,
2015-01-30 04:13:00,49.6,47.7,30.02,East,101,0.0,0.0,93,0.00,,,0.00,meteobridge,2015-01-30 12:13:00,
2015-01-30 04:18:00,49.6,47.7,30.02,ESE,103,0.0,0.0,93,0.00,,,0.00,meteobridge,2015-01-30 12:18:00,
2015-01-30 04:23:00,49.6,47.7,30.02,East,98,0.0,0.0,93,0.00,,,0.00,meteobridge,2015-01-30 12:23:00,
2015-01-30 04:28:00,49.8,48.2,30.02,ESE,102,0.0,0.0,94,0.00,,,0.00,meteobridge,2015-01-30 12:28:00,
2015-01-30 04:34:00,50.4,48.7,30.02,ESE,108,0.9,1.0,94,0.00,,,0.00,meteobridge,2015-01-30 12:34:00,
2015-01-30 04:39:00,50.5,48.9,30.02,ESE,117,0.9,2.0,94,0.00,,,0.00,meteobridge,2015-01-30 12:39:00,
2015-01-30 04:44:00,50.9,49.3,30.02,ESE,102,0.9,1.0,94,0.00,,,0.00,meteobridge,2015-01-30 12:44:00,
2015-01-30 04:49:00,51.1,49.5,30.02,East,94,0.9,2.0,94,0.00,,,0.00,meteobridge,2015-01-30 12:49:00,
2015-01-30 04:54:00,51.3,49.6,30.02,ESE,103,2.0,3.0,94,0.00,,,0.00,meteobridge,2015-01-30 12:54:00,
2015-01-30 04:59:00,51.6,50.0,30.02,ESE,118,2.0,3.0,94,0.00,,,0.00,meteobridge,2015-01-30 12:59:00,
2015-01-30 05:04:00,51.4,49.8,30.01,SE,126,2.0,2.0,94,0.00,,,0.00,meteobridge,2015-01-30 13:04:00,
2015-01-30 05:09:00,51.4,49.8,30.01,ESE,111,0.9,2.0,94,0.00,,,0.00,meteobridge,2015-01-30 13:09:00,
2015-01-30 05:14:00,51.3,49.6,30.01,SE,127,2.0,3.0,94,0.00,,,0.00,meteobridge,2015-01-30 13:14:00,
2015-01-30 05:19:00,51.1,49.5,30.01,ESE,119,0.9,2.0,94,0.00,,,0.00,meteobridge,2015-01-30 13:19:00,
2015-01-30 05:24:00,50.9,49.5,30.01,ESE,116,2.0,2.0,95,0.00,,,0.00,meteobridge,2015-01-30 13:24:00,
2015-01-30 05:29:00,51.1,49.6,30.02,ESE,104,0.0,1.0,95,0.00,,,0.00,meteobridge,2015-01-30 13:29:00,
2015-01-30 05:34:00,51.1,49.6,30.02,SE,139,0.0,0.0,95,0.00,,,0.00,meteobridge,2015-01-30 13:34:00,
2015-01-30 05:40:00,51.1,49.6,30.02,SE,139,0.0,0.0,95,0.00,,,0.00,meteobridge,2015-01-30 13:40:00,
2015-01-30 05:45:00,50.9,49.5,30.02,SE,139,0.0,0.0,95,0.00,,,0.00,meteobridge,2015-01-30 13:45:00,
2015-01-30 05:50:00,50.9,49.5,30.02,SE,139,0.0,0.0,95,0.00,,,0.00,meteobridge,2015-01-30 13:50:00,
2015-01-30 05:55:00,50.9,49.5,30.02,ESE,113,0.0,1.0,95,0.00,,,0.00,meteobridge,2015-01-30 13:55:00,
2015-01-30 06:00:00,50.9,49.5,30.02,NNE,27,0.9,1.0,95,0.00,,,0.00,meteobridge,2015-01-30 14:00:00,
2015-01-30 06:05:00,50.7,49.3,30.02,ENE,63,0.9,1.0,95,0.00,,,0.00,meteobridge,2015-01-30 14:05:00,
2015-01-30 06:10:00,50.7,49.3,30.02,East,82,0.9,2.0,95,0.00,,,0.00,meteobridge,2015-01-30 14:10:00,
2015-01-30 06:15:00,50.7,49.3,30.02,ENE,74,0.9,2.0,95,0.00,,,0.00,meteobridge,2015-01-30 14:15:00,
2015-01-30 06:20:00,49.8,49.3,30.02,ENE,60,2.0,2.0,98,0.00,,,0.00,meteobridge,2015-01-30 14:20:00,
2015-01-30 06:25:00,49.8,49.3,30.02,ENE,60,2.0,2.0,98,0.00,,,0.00,meteobridge,2015-01-30 14:25:00,
2015-01-30 06:31:00,-999.0,-99.9,30.02,ENE,60,2.0,2.0,-999,0.00,,,0.00,meteobridge,2015-01-30 14:31:00,
2015-01-30 06:36:00,-999.0,-99.9,30.02,ENE,60,2.0,-999.0,-999,0.00,,,0.00,meteobridge,2015-01-30 14:36:00,
2015-01-30 06:42:00,-999.0,-99.9,30.02,North,-999,-999.0,-999.0,-999,0.00,,,0.00,meteobridge,2015-01-30 14:42:00,
2015-01-30 06:48:00,-999.0,-99.9,30.02,North,-999,-999.0,-999.0,-999,0.00,,,0.00,meteobridge,2015-01-30 14:48:00,
2015-01-30 06:53:00,-999.0,-99.9,30.02,North,-999,-999.0,-999.0,-999,0.00,,,0.00,meteobridge,2015-01-30 14:53:00,
2015-01-30 06:59:00,-999.0,-99.9,30.02,North,-999,-999.0,-999.0,-999,0.00,,,0.00,meteobridge,2015-01-30 14:59:00,
2015-01-30 07:04:00,-999.0,-99.9,30.02,North,-999,-999.0,-999.0,-999,0.00,,,0.00,meteobridge,2015-01-30 15:04:00,
2015-01-30 07:10:00,-999.0,-99.9,30.02,North,-999,-999.0,-999.0,-999,0.00,,,0.00,meteobridge,2015-01-30 15:10:00,
2015-01-30 07:15:00,-999.0,-99.9,30.02,North,-999,-999.0,-999.0,-999,0.00,,,0.00,meteobridge,2015-01-30 15:15:00,
2015-01-30 07:20:00,-999.0,-99.9,30.02,North,-999,-999.0,-999.0,-999,0.00,,,0.00,meteobridge,2015-01-30 15:20:00,
2015-01-30 07:26:00,-999.0,-99.9,30.02,North,-999,-999.0,-999.0,-999,0.00,,,0.00,meteobridge,2015-01-30 15:26:00,
2015-01-30 07:31:00,-999.0,-99.9,30.02,North,-999,-999.0,-999.0,-999,-99.99,,,0.00,meteobridge,2015-01-30 15:31:00,
2015-01-30 07:37:00,-999.0,-99.9,30.02,North,-999,-999.0,-999.0,-999,-99.99,,,0.00,meteobridge,2015-01-30 15:37:00,
2015-01-30 07:42:00,-999.0,-99.9,30.02,North,-999,-999.0,-999.0,-999,-99.99,,,0.00,meteobridge,2015-01-30 15:42:00,
2015-01-30 07:47:00,-999.0,-99.9,30.02,North,-999,-999.0,-999.0,-999,-99.99,,,0.00,meteobridge,2015-01-30 15:47:00,
2015-01-30 07:52:00,-999.0,-99.9,30.02,North,-999,-999.0,-999.0,-999,-99.99,,,0.00,meteobridge,2015-01-30 15:52:00,
2015-01-30 07:57:00,-999.0,-99.9,30.02,North,-999,-999.0,-999.0,-999,-99.99,,,0.00,meteobridge,2015-01-30 15:57:00,
2015-01-30 08:02:00,-999.0,-99.9,30.02,North,-999,-999.0,-999.0,-999,-99.99,,,0.00,meteobridge,2015-01-30 16:02:00,
2015-01-30 08:07:00,-999.0,-99.9,30.02,North,-999,-999.0,-999.0,-999,-99.99,,,0.00,meteobridge,2015-01-30 16:07:00,
2015-01-30 08:12:00,50.5,49.5,30.02,East,86,2.0,2.0,96,0.00,,,0.00,meteobridge,2015-01-30 16:12:00,
2015-01-30 08:17:00,50.4,49.3,30.02,ESE,104,2.9,3.0,96,0.00,,,0.00,meteobridge,2015-01-30 16:17:00,
2015-01-30 08:22:00,50.4,49.3,30.02,East,101,2.0,4.0,96,0.00,,,0.00,meteobridge,2015-01-30 16:22:00,
2015-01-30 08:27:00,50.4,49.3,30.02,ESE,105,2.0,3.0,96,0.00,,,0.00,meteobridge,2015-01-30 16:27:00,
2015-01-30 08:32:00,50.4,49.3,30.02,East,90,2.0,3.0,96,0.00,,,0.00,meteobridge,2015-01-30 16:32:00,
2015-01-30 08:37:00,50.4,49.3,30.02,ENE,77,2.0,2.0,96,0.00,,,0.00,meteobridge,2015-01-30 16:37:00,
2015-01-30 08:42:00,50.4,49.3,30.02,East,86,2.0,2.0,96,0.00,,,0.00,meteobridge,2015-01-30 16:42:00,
2015-01-30 08:47:00,50.4,49.3,30.02,East,96,2.0,3.0,96,0.00,,,0.00,meteobridge,2015-01-30 16:47:00,
2015-01-30 08:52:00,50.5,49.5,30.02,ESE,122,2.0,3.0,96,0.00,,,0.00,meteobridge,2015-01-30 16:52:00,
2015-01-30 08:57:00,50.7,49.6,30.02,SE,131,2.0,3.0,96,0.00,,,0.00,meteobridge,2015-01-30 16:57:00,
2015-01-30 09:02:00,50.9,49.8,30.02,SE,144,2.0,3.0,96,0.00,,,0.00,meteobridge,2015-01-30 17:02:00,
2015-01-30 09:07:00,51.1,50.0,30.02,ESE,117,2.0,3.0,96,0.00,,,0.00,meteobridge,2015-01-30 17:07:00,
2015-01-30 09:13:00,51.1,50.0,30.02,SE,124,2.0,3.0,96,0.00,,,0.00,meteobridge,2015-01-30 17:13:00,
2015-01-30 09:18:00,51.4,50.4,30.02,ESE,108,2.0,2.0,96,0.00,,,0.00,meteobridge,2015-01-30 17:18:00,
2015-01-30 09:23:00,51.6,50.5,30.02,ESE,103,0.9,2.0,96,0.00,,,0.00,meteobridge,2015-01-30 17:23:00,
2015-01-30 09:28:00,52.0,50.9,30.02,SE,136,0.9,2.0,96,0.00,,,0.00,meteobridge,2015-01-30 17:28:00,
2015-01-30 09:33:00,52.3,50.9,30.02,SE,143,0.9,1.0,95,0.00,,,0.00,meteobridge,2015-01-30 17:33:00,
2015-01-30 09:38:00,52.5,51.1,30.02,SE,140,0.9,1.0,95,0.00,,,0.00,meteobridge,2015-01-30 17:38:00,
2015-01-30 09:43:00,53.1,51.6,30.02,SSE,156,0.9,2.0,95,0.00,,,0.00,meteobridge,2015-01-30 17:43:00,
2015-01-30 09:48:00,53.6,52.2,30.02,SSW,198,0.0,1.0,95,0.00,,,0.00,meteobridge,2015-01-30 17:48:00,
2015-01-30 09:53:00,54.0,52.0,30.02,South,179,0.9,1.0,93,0.00,,,0.00,meteobridge,2015-01-30 17:53:00,
2015-01-30 09:58:00,54.3,52.3,30.02,South,191,0.9,1.0,93,0.00,,,0.00,meteobridge,2015-01-30 17:58:00,
2015-01-30 10:03:00,54.1,51.8,30.02,SSW,210,0.9,1.0,92,0.00,,,0.00,meteobridge,2015-01-30 18:03:00,
2015-01-30 10:08:00,54.1,51.8,30.02,SSW,198,2.0,2.0,92,0.00,,,0.00,meteobridge,2015-01-30 18:08:00,
2015-01-30 10:13:00,54.1,51.6,30.02,South,191,2.9,4.0,91,0.00,,,0.00,meteobridge,2015-01-30 18:13:00,
2015-01-30 10:18:00,54.0,51.4,30.02,SSW,193,2.9,3.0,91,0.00,,,0.00,meteobridge,2015-01-30 18:18:00,
2015-01-30 10:23:00,53.8,51.3,30.02,SSW,194,2.9,4.0,91,0.00,,,0.00,meteobridge,2015-01-30 18:23:00,
2015-01-30 10:28:00,53.4,50.9,30.02,SSW,200,2.9,4.0,91,0.00,,,0.00,meteobridge,2015-01-30 18:28:00,
2015-01-30 10:33:00,53.2,50.7,30.02,South,188,2.9,5.0,91,0.00,,,0.00,meteobridge,2015-01-30 18:33:00,
2015-01-30 10:38:00,53.2,50.7,30.02,South,173,4.0,4.0,91,0.00,,,0.00,meteobridge,2015-01-30 18:38:00,
2015-01-30 10:43:00,53.2,50.9,30.02,South,178,2.9,4.0,92,0.00,,,0.00,meteobridge,2015-01-30 18:43:00,
2015-01-30 10:49:00,53.4,51.1,30.01,South,172,2.9,3.0,92,0.00,,,0.00,meteobridge,2015-01-30 18:49:00,
2015-01-30 10:54:00,53.4,50.9,30.01,South,188,2.9,3.0,91,0.00,,,0.00,meteobridge,2015-01-30 18:54:00,
2015-01-30 10:59:00,53.4,50.9,30.01,South,190,2.0,4.0,91,0.00,,,0.00,meteobridge,2015-01-30 18:59:00,
2015-01-30 11:04:00,53.4,50.9,30.01,SSW,195,2.9,4.0,91,0.00,,,0.00,meteobridge,2015-01-30 19:04:00,
2015-01-30 11:09:00,53.4,50.9,30.00,SSW,194,2.9,4.0,91,0.00,,,0.00,meteobridge,2015-01-30 19:09:00,
2015-01-30 11:14:00,53.4,50.9,30.00,SW,214,2.9,4.0,91,0.00,,,0.00,meteobridge,2015-01-30 19:14:00,
2015-01-30 11:19:00,53.6,51.1,30.00,SSW,211,2.9,4.0,91,0.00,,,0.00,meteobridge,2015-01-30 19:19:00,
2015-01-30 11:24:00,53.4,50.9,30.00,SSW,203,4.0,6.0,91,0.00,,,0.00,meteobridge,2015-01-30 19:24:00,
2015-01-30 11:29:00,53.4,50.9,29.99,SW,226,2.9,4.0,91,0.00,,,0.00,meteobridge,2015-01-30 19:29:00,
2015-01-30 11:34:00,53.4,50.9,29.99,SSW,210,2.9,5.0,91,0.00,,,0.00,meteobridge,2015-01-30 19:34:00,
2015-01-30 11:39:00,53.2,50.7,29.99,SSW,204,4.9,5.0,91,0.00,,,0.00,meteobridge,2015-01-30 19:39:00,
2015-01-30 11:44:00,53.1,50.5,29.98,SW,219,4.9,5.0,91,0.00,,,0.00,meteobridge,2015-01-30 19:44:00,
2015-01-30 11:49:00,52.9,50.4,29.98,SW,219,4.9,5.0,91,0.00,,,0.00,meteobridge,2015-01-30 19:49:00,
2015-01-30 11:54:00,52.9,50.5,29.98,SSW,209,4.0,5.0,92,0.00,,,0.00,meteobridge,2015-01-30 19:54:00,
2015-01-30 11:59:00,52.9,50.5,29.98,SSW,211,2.9,4.0,92,0.00,,,0.00,meteobridge,2015-01-30 19:59:00,
2015-01-30 12:04:00,52.9,50.5,29.97,SSW,200,4.0,4.0,92,0.00,,,0.00,meteobridge,2015-01-30 20:04:00,
2015-01-30 12:09:00,53.2,50.9,29.97,SSW,193,2.9,4.0,92,0.00,,,0.00,meteobridge,2015-01-30 20:09:00,
2015-01-30 12:15:00,53.8,51.3,29.97,SSW,195,2.9,4.0,91,0.00,,,0.00,meteobridge,2015-01-30 20:15:00,
2015-01-30 12:20:00,54.1,51.3,29.97,SSW,193,2.9,3.0,90,0.00,,,0.00,meteobridge,2015-01-30 20:20:00,
2015-01-30 12:25:00,54.5,51.3,29.96,SSW,200,2.9,3.0,89,0.00,,,0.00,meteobridge,2015-01-30 20:25:00,
2015-01-30 12:30:00,54.7,51.3,29.96,South,191,2.9,3.0,88,0.00,,,0.00,meteobridge,2015-01-30 20:30:00,
2015-01-30 12:35:00,55.0,51.3,29.95,SSW,196,2.0,3.0,87,0.00,,,0.00,meteobridge,2015-01-30 20:35:00,
2015-01-30 12:40:00,55.6,51.4,29.95,SSW,209,2.0,2.0,86,0.00,,,0.00,meteobridge,2015-01-30 20:40:00,
2015-01-30 12:45:00,55.9,51.8,29.94,SSW,194,0.9,2.0,86,0.00,,,0.00,meteobridge,2015-01-30 20:45:00,
2015-01-30 12:50:00,56.3,51.8,29.94,SW,217,2.0,2.0,85,0.00,,,0.00,meteobridge,2015-01-30 20:50:00,
2015-01-30 12:55:00,56.3,51.8,29.94,SSW,207,0.9,2.0,85,0.00,,,0.00,meteobridge,2015-01-30 20:55:00,
2015-01-30 13:00:00,56.5,52.3,29.94,SW,226,2.0,3.0,86,0.00,,,0.00,meteobridge,2015-01-30 21:00:00,
2015-01-30 13:05:00,56.5,52.3,29.93,SW,233,0.9,2.0,86,0.00,,,0.00,meteobridge,2015-01-30 21:05:00,
2015-01-30 13:10:00,56.3,52.2,29.93,SW,231,2.0,3.0,86,0.00,,,0.00,meteobridge,2015-01-30 21:10:00,
2015-01-30 13:15:00,56.1,52.3,29.93,SW,219,2.0,3.0,87,0.00,,,0.00,meteobridge,2015-01-30 21:15:00,
2015-01-30 13:20:00,55.9,51.8,29.93,SW,216,2.0,3.0,86,0.00,,,0.00,meteobridge,2015-01-30 21:20:00,
2015-01-30 13:25:00,55.9,51.8,29.93,WSW,237,2.0,3.0,86,0.00,,,0.00,meteobridge,2015-01-30 21:25:00,
2015-01-30 13:30:00,56.1,52.3,29.93,SW,233,0.9,3.0,87,0.00,,,0.00,meteobridge,2015-01-30 21:30:00,
2015-01-30 13:35:00,56.3,52.5,29.93,SW,232,0.9,2.0,87,0.00,,,0.00,meteobridge,2015-01-30 21:35:00,
2015-01-30 13:40:00,56.5,52.7,29.92,SW,234,0.9,2.0,87,0.00,,,0.00,meteobridge,2015-01-30 21:40:00,
2015-01-30 13:46:00,56.8,53.1,29.92,SW,214,0.9,2.0,87,0.00,,,0.00,meteobridge,2015-01-30 21:46:00,
2015-01-30 13:51:00,56.7,52.5,29.92,SW,218,0.9,1.0,86,0.00,,,0.00,meteobridge,2015-01-30 21:51:00,
2015-01-30 13:56:00,56.8,52.7,29.92,SW,218,0.0,2.0,86,0.00,,,0.00,meteobridge,2015-01-30 21:56:00,
2015-01-30 14:01:00,57.0,52.9,29.92,WSW,248,2.0,3.0,86,0.00,,,0.00,meteobridge,2015-01-30 22:01:00,
2015-01-30 14:06:00,56.8,53.1,29.92,SW,224,2.0,3.0,87,0.00,,,0.00,meteobridge,2015-01-30 22:06:00,
2015-01-30 14:11:00,56.7,52.9,29.92,SSW,200,2.0,3.0,87,0.00,,,0.00,meteobridge,2015-01-30 22:11:00,
2015-01-30 14:16:00,56.8,53.2,29.91,SSW,207,0.9,3.0,88,0.00,,,0.00,meteobridge,2015-01-30 22:16:00,
2015-01-30 14:21:00,56.8,53.2,29.91,WSW,257,0.9,2.0,88,0.00,,,0.00,meteobridge,2015-01-30 22:21:00,
2015-01-30 14:26:00,56.8,53.2,29.91,SW,236,0.9,2.0,88,0.00,,,0.00,meteobridge,2015-01-30 22:26:00,
2015-01-30 14:31:00,56.8,53.2,29.91,WSW,246,2.0,3.0,88,0.00,,,0.00,meteobridge,2015-01-30 22:31:00,
2015-01-30 14:36:00,56.7,53.1,29.91,SW,224,2.9,4.0,88,0.00,,,0.00,meteobridge,2015-01-30 22:36:00,
2015-01-30 14:41:00,56.7,53.1,29.91,SW,219,2.0,4.0,88,0.00,,,0.00,meteobridge,2015-01-30 22:41:00,
2015-01-30 14:46:00,56.7,53.1,29.91,SW,223,2.9,5.0,88,0.00,,,0.00,meteobridge,2015-01-30 22:46:00,
2015-01-30 14:51:00,56.7,53.1,29.91,SW,233,4.0,5.0,88,0.00,,,0.00,meteobridge,2015-01-30 22:51:00,
2015-01-30 14:57:00,56.7,53.1,29.91,SW,222,2.0,5.0,88,0.00,,,0.00,meteobridge,2015-01-30 22:57:00,
2015-01-30 15:02:00,56.7,53.1,29.90,WSW,237,0.9,5.0,88,0.00,,,0.00,meteobridge,2015-01-30 23:02:00,
2015-01-30 15:07:00,56.5,52.9,29.90,SW,221,2.0,5.0,88,0.00,,,0.00,meteobridge,2015-01-30 23:07:00,
2015-01-30 15:12:00,56.7,53.1,29.90,WSW,242,2.9,5.0,88,0.00,,,0.00,meteobridge,2015-01-30 23:12:00,
2015-01-30 15:17:00,56.7,53.4,29.90,SW,226,4.0,4.0,89,0.00,,,0.00,meteobridge,2015-01-30 23:17:00,
2015-01-30 15:22:00,56.8,53.6,29.90,SW,229,2.9,4.0,89,0.00,,,0.00,meteobridge,2015-01-30 23:22:00,
2015-01-30 15:27:00,57.0,53.8,29.90,WSW,238,2.0,3.0,89,0.00,,,0.00,meteobridge,2015-01-30 23:27:00,
2015-01-30 15:32:00,57.6,54.3,29.90,WSW,241,0.9,3.0,89,0.00,,,0.00,meteobridge,2015-01-30 23:32:00,
2015-01-30 15:37:00,57.2,53.4,29.90,West,272,2.9,4.0,87,0.00,,,0.00,meteobridge,2015-01-30 23:37:00,
2015-01-30 15:42:00,57.0,53.4,29.90,WSW,256,4.9,5.0,88,0.00,,,0.00,meteobridge,2015-01-30 23:42:00,